Time;durP1;ratioP1;P1;durP2;ratioP2;P2;SDS_P1;SDS_P2;PMS_P1;PMS_P2;Temp;Humidity;BMP_temperature;BMP_pressure;BME280_temperature;BME280_humidity;BME280_pressure;Samples;Min_cycle;Max_cycle;Signal;HPM_P1;HPM_P2
2022/11/01 00:01:39;;;;;;;0.90;0.47;;;;;;;15.50;30.86;95035.91;4999717;28;20030;-87
2022/11/01 00:04:05;;;;;;;0.73;0.70;;;;;;;15.29;30.51;95022.13;4999925;28;20087;-88
2022/11/01 00:06:30;;;;;;;2.58;0.55;;;;;;;15.35;30.32;95021.03;5002573;28;20032;-87
2022/11/01 00:08:56;;;;;;;1.58;0.60;;;;;;;15.30;30.50;95018.41;5003492;28;20118;-87
2022/11/01 00:11:21;;;;;;;1.88;0.77;;;;;;;15.48;30.63;95019.56;5019759;28;20403;-88
2022/11/01 00:13:48;;;;;;;0.93;0.68;;;;;;;15.64;30.82;95025.44;5003611;28;20026;-87
2022/11/01 00:16:15;;;;;;;1.38;0.70;;;;;;;15.78;30.36;95020.25;5003530;28;20068;-88
2022/11/01 00:18:40;;;;;;;3.40;0.82;;;;;;;15.90;29.62;95013.78;5003457;28;20129;-88
2022/11/01 00:21:06;;;;;;;2.80;0.60;;;;;;;15.98;29.17;95021.06;5003431;28;20025;-87
2022/11/01 00:23:31;;;;;;;6.13;0.77;;;;;;;16.08;28.50;95022.81;5003532;28;20030;-88
2022/11/01 00:26:00;;;;;;;5.88;0.80;;;;;;;16.02;29.67;95016.00;5003406;28;20030;-88
2022/11/01 00:28:27;;;;;;;1.98;0.52;;;;;;;15.79;29.12;95016.53;5003091;28;20080;-88
2022/11/01 00:30:53;;;;;;;1.10;0.63;;;;;;;15.82;28.80;95017.81;5003106;28;20036;-87
2022/11/01 00:33:18;;;;;;;3.28;0.63;;;;;;;15.55;29.11;95019.22;5003245;28;20038;-87
2022/11/01 00:35:45;;;;;;;1.63;0.40;;;;;;;15.32;31.40;95018.16;5019406;28;20449;-87
2022/11/01 00:38:12;;;;;;;1.65;0.47;;;;;;;15.44;28.59;95015.91;5019230;28;20087;-87
2022/11/01 00:40:38;;;;;;;0.75;0.50;;;;;;;15.35;29.07;95014.94;5019354;28;20423;-88
2022/11/01 00:43:03;;;;;;;1.10;0.70;;;;;;;15.21;28.72;95017.47;5019299;28;20044;-87
2022/11/01 00:45:29;;;;;;;1.27;0.50;;;;;;;14.99;30.01;95010.81;5003071;28;20034;-88
2022/11/01 00:47:54;;;;;;;1.48;0.77;;;;;;;15.03;29.30;95013.69;5003007;28;20040;-88
2022/11/01 00:50:19;;;;;;;1.13;0.38;;;;;;;14.90;29.56;95018.56;5019124;28;20033;-87
2022/11/01 00:52:45;;;;;;;0.68;0.32;;;;;;;14.74;28.75;95011.84;5019104;28;20034;-87
2022/11/01 00:55:11;;;;;;;0.88;0.38;;;;;;;14.62;28.87;95012.97;5002588;28;20036;-87
2022/11/01 00:57:36;;;;;;;0.77;0.40;;;;;;;14.68;29.11;95003.94;5002873;28;20037;-88
2022/11/01 01:00:03;;;;;;;2.75;0.40;;;;;;;14.77;29.61;95013.94;5018832;28;20030;-88
2022/11/01 01:02:28;;;;;;;0.52;0.32;;;;;;;14.81;28.20;95007.84;5018521;28;20038;-87
2022/11/01 01:04:54;;;;;;;1.30;0.30;;;;;;;14.92;27.63;95010.34;5002756;28;20046;-87
2022/11/01 01:07:19;;;;;;;4.10;0.50;;;;;;;14.95;27.59;95009.81;5018877;28;20041;-88
2022/11/01 01:14:51;;;;;;;1.25;0.40;;;;;;;14.88;29.28;95011.97;5018535;28;20057;-93
2022/11/01 01:17:19;;;;;;;4.22;0.70;;;;;;;14.65;30.23;95004.50;5002536;28;20461;-93
2022/11/01 01:19:46;;;;;;;1.73;0.50;;;;;;;14.60;30.64;95012.47;5003044;28;20446;-93
2022/11/01 01:22:12;;;;;;;0.98;0.50;;;;;;;14.96;29.31;95006.13;5002931;28;20133;-93
2022/11/01 01:24:44;;;;;;;3.85;0.40;;;;;;;14.84;29.53;95006.47;5002639;28;20053;-93
2022/11/01 01:27:18;;;;;;;0.95;0.60;;;;;;;14.74;29.73;95007.34;5003977;28;20033;-94
2022/11/01 01:29:44;;;;;;;1.33;0.45;;;;;;;14.70;30.15;95001.84;5002720;28;20418;-95
2022/11/01 01:32:16;;;;;;;1.98;0.73;;;;;;;14.94;29.46;94987.91;5002765;28;20029;-93
2022/11/01 01:34:41;;;;;;;1.30;0.50;;;;;;;14.87;29.32;94990.09;5002997;28;20029;-92
2022/11/01 01:37:08;;;;;;;1.05;0.50;;;;;;;14.94;29.62;94987.16;5002891;28;20021;-93
2022/11/01 01:42:55;;;;;;;0.45;0.38;;;;;;;14.94;29.84;94982.63;5019749;28;20033;-92
2022/11/01 01:45:25;;;;;;;0.82;0.50;;;;;;;14.92;29.64;94976.06;5002378;28;20338;-92
2022/11/01 01:47:52;;;;;;;1.30;0.30;;;;;;;14.87;29.61;94978.75;5018708;28;20423;-93
2022/11/01 01:50:37;;;;;;;1.48;0.40;;;;;;;14.79;30.51;94982.78;5002354;28;20025;-92
2022/11/01 01:53:11;;;;;;;2.15;0.60;;;;;;;14.69;30.44;94973.88;5003085;28;20041;-93
2022/11/01 01:55:46;;;;;;;0.47;0.32;;;;;;;14.68;30.28;94968.88;5002171;28;20026;-92
2022/11/01 01:58:16;;;;;;;1.98;0.40;;;;;;;14.70;29.77;94980.75;5002337;28;20033;-93
2022/11/01 02:00:43;;;;;;;0.63;0.43;;;;;;;15.03;28.63;94979.41;5002515;28;20446;-94
2022/11/01 02:03:15;;;;;;;1.08;0.60;;;;;;;14.92;29.88;94982.13;5002114;28;20041;-93
2022/11/01 02:05:48;;;;;;;0.77;0.50;;;;;;;14.92;29.36;94978.69;5003021;28;20025;-93
2022/11/01 02:08:16;;;;;;;0.95;0.50;;;;;;;14.60;30.25;94980.81;5018293;28;20275;-92
2022/11/01 02:10:54;;;;;;;1.55;0.60;;;;;;;14.67;29.80;94973.38;5003457;28;20036;-92
2022/11/01 02:13:26;;;;;;;1.65;0.63;;;;;;;14.74;29.58;94970.44;5002191;28;20351;-93
2022/11/01 02:16:30;;;;;;;0.63;0.40;;;;;;;15.10;29.34;94972.72;5002990;28;20032;-93
2022/11/01 02:19:17;;;;;;;2.63;0.40;;;;;;;15.00;29.73;94964.13;5018307;28;20272;-93
2022/11/01 02:21:55;;;;;;;2.28;0.70;;;;;;;14.60;32.07;94967.63;5018064;28;20542;-91
2022/11/01 02:24:47;;;;;;;1.27;0.60;;;;;;;14.76;29.97;94965.66;5017958;28;20033;-92
2022/11/01 02:27:33;;;;;;;3.22;0.68;;;;;;;14.80;31.16;94961.41;5001396;28;20132;-93
2022/11/01 02:30:07;;;;;;;1.48;0.80;;;;;;;14.92;30.26;94962.88;5001703;28;20354;-92
2022/11/01 02:32:39;;;;;;;0.98;0.60;;;;;;;14.73;31.58;94968.09;5017760;28;20036;-93
2022/11/01 02:35:26;;;;;;;2.42;0.60;;;;;;;14.76;31.89;94965.66;5018065;28;20037;-92
2022/11/01 02:38:07;;;;;;;3.13;0.70;;;;;;;15.11;31.29;94966.38;5001534;28;20025;-93
2022/11/01 02:40:47;;;;;;;3.10;0.70;;;;;;;15.11;32.52;94955.81;5001653;28;20129;-93
2022/11/01 02:43:17;;;;;;;3.35;0.70;;;;;;;14.97;33.22;94962.84;5001543;28;20358;-92
2022/11/01 02:45:48;;;;;;;2.95;0.75;;;;;;;14.91;32.90;94963.94;5000861;28;20030;-93
2022/11/01 02:48:14;;;;;;;2.90;1.00;;;;;;;14.83;34.16;94962.69;5001561;28;20415;-92
2022/11/01 02:50:48;;;;;;;2.60;1.23;;;;;;;14.79;36.50;94959.84;5001227;28;20033;-92
2022/11/01 02:53:14;;;;;;;6.05;1.38;;;;;;;14.72;36.75;94958.59;5001565;28;20030;-92
2022/11/01 02:55:39;;;;;;;3.92;1.00;;;;;;;14.67;36.63;94956.78;5001257;28;20026;-93
2022/11/01 02:58:26;;;;;;;5.80;1.38;;;;;;;14.87;36.38;94957.66;5000920;28;20026;-92
2022/11/01 03:00:52;;;;;;;5.00;1.25;;;;;;;14.72;37.60;94955.97;5000931;28;20041;-92
2022/11/01 03:03:23;;;;;;;4.18;1.30;;;;;;;14.66;37.97;94955.19;5001016;28;20030;-92
2022/11/01 03:06:06;;;;;;;8.15;1.30;;;;;;;14.49;38.78;94958.25;5000863;28;20064;-93
2022/11/01 03:08:44;;;;;;;3.13;1.07;;;;;;;14.35;39.16;94968.66;5017387;28;20111;-93
2022/11/01 03:11:16;;;;;;;5.07;1.13;;;;;;;14.32;39.94;94969.19;5001211;28;20021;-93
2022/11/01 03:14:04;;;;;;;8.43;1.30;;;;;;;14.55;40.19;94959.75;5016833;28;20033;-93
2022/11/01 03:16:38;;;;;;;5.53;1.77;;;;;;;14.59;40.28;94968.72;5017111;28;20037;-92
2022/11/01 03:19:31;;;;;;;2.95;1.27;;;;;;;14.76;39.18;94973.56;5000997;28;20171;-94
2022/11/01 03:22:05;;;;;;;9.30;4.03;;;;;;;14.86;45.24;94971.91;5017143;28;20120;-93
2022/11/01 03:24:39;;;;;;;17.55;7.18;;;;;;;14.80;53.11;94971.97;5000623;28;20030;-93
2022/11/01 03:27:31;;;;;;;20.98;8.43;;;;;;;14.78;60.31;94981.22;5000664;28;20033;-94
2022/11/01 03:30:09;;;;;;;21.80;8.05;;;;;;;14.79;62.56;94990.69;5000915;28;20080;-94
2022/11/01 03:32:52;;;;;;;27.63;9.65;;;;;;;15.02;66.66;94991.78;5000832;28;20052;-93
2022/11/01 03:35:23;;;;;;;22.07;10.17;;;;;;;14.98;73.78;94993.44;5000861;28;20026;-93
2022/11/01 03:37:58;;;;;;;28.05;11.23;;;;;;;14.85;83.58;94997.53;5000657;28;20026;-94
2022/11/01 03:40:27;;;;;;;29.13;12.00;;;;;;;14.76;88.46;94999.94;5001227;28;20042;-94
2022/11/01 03:42:59;;;;;;;26.60;11.10;;;;;;;14.69;91.03;95010.78;5000695;28;20034;-93
2022/11/01 03:45:34;;;;;;;24.15;9.50;;;;;;;14.55;85.12;95012.50;5000497;28;20026;-93
2022/11/01 03:48:10;;;;;;;;;;;;;;;;;;;;;
2022/11/01 03:50:45;;;;;;;;;;;;;;;;;;;;;
2022/11/01 03:53:16;;;;;;;14.35;6.30;;;;;;;14.65;68.15;95027.47;5016519;28;20028;-93
2022/11/01 03:55:54;;;;;;;;;;;;;;;;;;;;;
2022/11/01 03:58:22;;;;;;;18.48;5.30;;;;;;;14.58;65.02;95025.16;5016472;28;20018;-93
2022/11/01 04:00:55;;;;;;;16.05;4.85;;;;;;;14.74;65.20;95036.38;5016428;28;20113;-92
2022/11/01 04:03:23;;;;;;;15.43;4.18;;;;;;;14.54;68.06;95029.38;5001249;28;20034;-91
2022/11/01 04:05:48;;;;;;;9.43;3.67;;;;;;;14.44;69.21;95029.47;5000189;28;20125;-93
2022/11/01 04:08:14;;;;;;;12.88;4.85;;;;;;;14.35;69.95;95026.63;5000383;28;20420;-94
2022/11/01 04:10:39;;;;;;;13.77;4.50;;;;;;;14.23;71.15;95027.75;5000214;28;20033;-93
2022/11/01 04:13:05;;;;;;;13.50;4.80;;;;;;;14.08;70.67;95022.59;4999842;28;20038;-92
2022/11/01 04:21:18;;;;;;;8.93;3.53;;;;;;;13.81;74.80;95019.28;5016357;28;20096;-92
2022/11/01 04:23:47;;;;;;;13.32;3.70;;;;;;;12.98;71.70;95014.31;5000450;28;20036;-92
2022/11/01 04:26:18;;;;;;;8.38;3.72;;;;;;;12.95;76.27;95014.81;5016154;28;20041;-93
2022/11/01 04:28:55;;;;;;;10.88;3.40;;;;;;;12.96;75.32;95026.91;5016065;28;20030;-94
2022/11/01 04:31:27;;;;;;;7.38;2.95;;;;;;;13.17;78.29;95029.50;5001469;28;20065;-93
2022/11/01 04:33:54;;;;;;;12.48;3.17;;;;;;;13.19;78.83;95031.88;5016039;28;20040;-93
2022/11/01 04:36:19;;;;;;;7.30;2.70;;;;;;;13.26;77.39;95035.00;4999292;28;20041;-88
2022/11/01 04:39:00;;;;;;;;;;;;;;;;;;;;;
2022/11/01 04:41:27;;;;;;;9.05;2.78;;;;;;;13.20;79.56;95039.50;5016285;28;20338;-94
2022/11/01 04:44:07;;;;;;;;;;;;;;;;;;;;;
2022/11/01 04:46:45;;;;;;;;;;;;;;;;;;;;;
2022/11/01 04:52:38;;;;;;;10.32;3.22;;;;;;;13.60;80.74;95036.25;5020780;28;20025;-96
2022/11/01 04:55:04;;;;;;;9.07;3.30;;;;;;;13.60;84.01;95029.13;5021670;28;20064;-96
2022/11/01 04:57:37;;;;;;;9.60;3.15;;;;;;;13.60;83.99;95028.34;5005797;28;20034;-96
2022/11/01 05:00:03;;;;;;;8.98;3.50;;;;;;;13.59;85.18;95040.72;5005648;28;20029;-96
2022/11/01 05:02:29;;;;;;;11.73;3.53;;;;;;;13.56;85.54;95036.00;5005714;28;20033;-96
2022/11/01 05:04:57;;;;;;;10.90;3.85;;;;;;;13.63;87.36;95041.78;5022509;28;20330;-95
2022/11/01 05:07:22;;;;;;;16.20;4.47;;;;;;;13.76;89.61;95032.50;5005041;28;20030;-95
2022/11/01 05:09:50;;;;;;;13.80;4.35;;;;;;;13.67;92.73;95027.00;5021426;28;20125;-95
2022/11/01 05:12:26;;;;;;;;;;;;;;;;;;;;;
2022/11/01 05:14:52;;;;;;;13.27;4.05;;;;;;;13.71;91.03;95024.63;5021641;28;20060;-96
2022/11/01 05:17:18;;;;;;;10.80;4.63;;;;;;;13.61;94.24;95030.72;5004319;28;20089;-96
2022/11/01 05:19:46;;;;;;;13.13;3.70;;;;;;;13.54;95.07;95044.16;5004182;28;20030;-96
2022/11/01 05:22:21;;;;;;;;;;;;;;;;;;;;;
2022/11/01 05:24:54;;;;;;;13.70;4.45;;;;;;;13.40;96.80;95040.50;5020952;28;20021;-96
2022/11/01 05:27:23;;;;;;;15.50;4.40;;;;;;;13.34;99.09;95036.31;5023925;28;20068;-96
2022/11/01 05:30:06;;;;;;;11.43;4.18;;;;;;;13.43;96.81;95038.16;5030749;28;20049;-95
2022/11/01 05:32:37;;;;;;;15.52;4.93;;;;;;;13.40;100.00;95032.59;5027088;28;20036;-96
2022/11/01 05:35:03;;;;;;;15.48;5.70;;;;;;;13.34;100.00;95034.47;5007093;28;20034;-96
2022/11/01 05:37:39;;;;;;;;;;;;;;;;;;;;;
2022/11/01 05:40:08;;;;;;;16.60;6.00;;;;;;;13.11;100.00;95031.38;5019660;28;20024;-96
2022/11/01 05:42:40;;;;;;;15.38;4.85;;;;;;;13.11;100.00;95026.09;5006495;28;20033;-96
2022/11/01 05:45:08;;;;;;;15.73;5.10;;;;;;;13.11;100.00;95031.38;5024997;28;20419;-96
2022/11/01 05:47:43;;;;;;;13.73;4.80;;;;;;;13.13;100.00;95024.00;5024372;28;20036;-96
2022/11/01 05:50:13;;;;;;;11.98;4.88;;;;;;;13.15;100.00;95034.25;5009316;28;20026;-95
2022/11/01 05:52:39;;;;;;;15.23;5.47;;;;;;;13.10;100.00;95029.78;5010394;28;20026;-96
2022/11/01 05:55:18;;;;;;;;;;;;;;;;;;;;;
2022/11/01 05:57:47;;;;;;;14.32;4.57;;;;;;;13.29;98.93;95029.22;5024631;28;20112;-95
2022/11/01 06:00:18;;;;;;;10.90;4.47;;;;;;;13.48;94.42;95029.44;5006657;28;20043;-96
2022/11/01 06:02:44;;;;;;;7.80;3.38;;;;;;;13.45;84.59;95026.56;5006559;28;20066;-96
2022/11/01 06:05:11;;;;;;;9.18;2.58;;;;;;;13.56;64.33;95028.09;5003050;28;20053;-96
2022/11/01 06:07:37;;;;;;;11.43;2.92;;;;;;;13.70;64.51;95028.28;5003757;28;20033;-95
2022/11/01 06:10:04;;;;;;;7.75;3.13;;;;;;;13.89;68.03;95025.84;5002130;28;20025;-94
2022/11/01 06:12:39;;;;;;;10.38;3.30;;;;;;;13.92;61.55;95027.94;5018176;28;20427;-94
2022/11/01 06:15:07;;;;;;;12.90;4.10;;;;;;;14.06;69.93;95027.31;5002941;28;20034;-95
2022/11/01 06:17:37;;;;;;;11.40;3.88;;;;;;;14.01;75.48;95030.81;5002102;28;20124;-95
2022/11/01 06:20:03;;;;;;;11.82;3.42;;;;;;;14.06;77.16;95036.03;5001991;28;20060;-95
2022/11/01 06:22:31;;;;;;;14.30;4.65;;;;;;;14.13;85.45;95036.53;5018028;28;20037;-95
2022/11/01 06:24:56;;;;;;;12.77;4.10;;;;;;;14.21;84.88;95032.53;5017851;28;20438;-96
2022/11/01 06:27:22;;;;;;;12.45;4.35;;;;;;;14.25;80.64;95032.75;5001676;28;20033;-91
2022/11/01 06:29:47;;;;;;;14.48;4.57;;;;;;;14.36;85.94;95022.94;5017520;28;20032;-90
2022/11/01 06:32:12;;;;;;;15.20;4.40;;;;;;;14.44;91.81;95032.88;5000741;28;20037;-90
2022/11/01 06:34:38;;;;;;;15.10;6.07;;;;;;;14.47;98.37;95037.59;5000981;28;20100;-89
2022/11/01 06:37:04;;;;;;;13.13;4.80;;;;;;;14.53;99.85;95039.16;5001312;28;20034;-90
2022/11/01 06:39:29;;;;;;;13.80;4.57;;;;;;;14.70;96.04;95044.03;5001024;28;20036;-89
2022/11/01 06:41:54;;;;;;;12.23;4.32;;;;;;;14.80;93.81;95040.56;5016982;28;20485;-90
2022/11/01 06:44:21;;;;;;;12.02;4.57;;;;;;;15.04;94.59;95039.03;5000854;28;20411;-89
2022/11/01 06:46:46;;;;;;;12.85;4.15;;;;;;;15.02;97.47;95030.59;5001637;28;20034;-90
2022/11/01 06:49:11;;;;;;;14.55;4.25;;;;;;;15.10;93.38;95038.69;5000990;28;20053;-91
2022/11/01 06:51:37;;;;;;;18.63;4.25;;;;;;;15.08;94.74;95042.66;5001002;28;20064;-90
2022/11/01 06:54:02;;;;;;;9.82;4.25;;;;;;;15.22;93.51;95045.44;5000987;28;20037;-91
2022/11/01 06:56:28;;;;;;;12.77;3.47;;;;;;;15.35;89.11;95047.44;5017077;28;20030;-91
2022/11/01 06:58:54;;;;;;;8.65;3.40;;;;;;;15.48;84.56;95047.78;5000604;28;20030;-90
2022/11/01 07:01:23;;;;;;;11.65;4.00;;;;;;;15.60;87.71;95063.25;5016958;28;20061;-91
2022/11/01 07:03:50;;;;;;;13.55;3.47;;;;;;;15.42;85.59;95062.91;4999685;28;20034;-90
2022/11/01 07:06:17;;;;;;;9.05;3.97;;;;;;;15.28;89.07;95068.06;5014945;28;20033;-90
2022/11/01 07:08:42;;;;;;;10.20;3.75;;;;;;;15.75;83.29;95075.50;4997033;28;20061;-88
2022/11/01 07:11:08;;;;;;;10.18;3.85;;;;;;;15.92;81.00;95070.56;4997149;28;20038;-88
2022/11/01 07:13:35;;;;;;;8.18;3.70;;;;;;;16.09;81.15;95066.66;4996871;28;20041;-87
2022/11/01 07:16:02;;;;;;;15.50;3.22;;;;;;;16.27;80.47;95067.72;4981665;28;20034;-88
2022/11/01 07:18:29;;;;;;;11.20;3.42;;;;;;;15.75;95.71;95076.28;4981331;28;20030;-88
2022/11/01 07:20:55;;;;;;;13.60;3.22;;;;;;;15.43;96.40;95069.00;4997108;28;20125;-88
2022/11/01 07:23:21;;;;;;;12.27;4.47;;;;;;;15.64;90.50;95073.00;4980884;28;20065;-88
2022/11/01 07:25:50;;;;;;;11.27;3.40;;;;;;;16.23;86.22;95077.31;4998229;28;20084;-88
2022/11/01 07:28:16;;;;;;;12.23;4.05;;;;;;;15.96;91.64;95086.63;4997072;28;20030;-88
2022/11/01 07:30:41;;;;;;;12.43;3.40;;;;;;;15.88;92.15;95087.25;4996705;28;20031;-88
2022/11/01 07:33:10;;;;;;;12.43;3.80;;;;;;;16.21;82.14;95080.25;4997140;28;20088;-88
2022/11/01 07:35:38;;;;;;;8.57;3.38;;;;;;;16.57;80.27;95096.66;4996966;28;20061;-88
2022/11/01 07:38:03;;;;;;;11.18;2.63;;;;;;;16.87;77.99;95091.97;4997103;28;20081;-88
2022/11/01 07:40:29;;;;;;;10.55;2.90;;;;;;;17.12;74.11;95087.38;4980581;28;20030;-88
2022/11/01 07:42:57;;;;;;;11.85;3.17;;;;;;;17.02;75.60;95091.75;4980783;28;20037;-88
2022/11/01 07:45:23;;;;;;;5.40;2.28;;;;;;;17.41;76.11;95078.41;4980523;28;20034;-88
2022/11/01 07:47:52;;;;;;;9.23;3.15;;;;;;;17.51;78.91;95080.88;4980559;28;20049;-87
2022/11/01 07:50:17;;;;;;;10.45;3.20;;;;;;;17.72;72.57;95086.56;4996408;28;20035;-88
2022/11/01 07:52:44;;;;;;;11.95;3.63;;;;;;;17.92;69.22;95087.25;4996896;28;20034;-87
2022/11/01 07:55:10;;;;;;;13.40;3.67;;;;;;;17.99;69.45;95082.31;4996464;28;20454;-88
2022/11/01 07:57:39;;;;;;;8.57;3.75;;;;;;;17.84;70.08;95079.97;4996666;28;20031;-88
2022/11/01 08:00:06;;;;;;;9.05;3.55;;;;;;;17.90;69.23;95092.81;4996694;28;20443;-88
2022/11/01 08:02:31;;;;;;;12.80;3.10;;;;;;;18.20;66.61;95090.66;4980354;28;20026;-88
2022/11/01 08:04:57;;;;;;;8.80;3.10;;;;;;;18.58;62.94;95096.75;4996566;28;20053;-88
2022/11/01 08:07:22;;;;;;;8.25;3.17;;;;;;;18.66;64.74;95101.34;4997655;28;20085;-87
2022/11/01 08:09:48;;;;;;;10.75;3.53;;;;;;;18.91;60.30;95104.47;4996852;28;20022;-88
2022/11/01 08:12:13;;;;;;;12.00;3.08;;;;;;;19.29;61.13;95106.78;4996229;28;20346;-88
2022/11/01 08:14:41;;;;;;;10.68;3.00;;;;;;;18.96;59.84;95111.53;4996734;28;20057;-91
2022/11/01 08:17:09;;;;;;;8.43;2.60;;;;;;;19.35;57.97;95102.88;4996349;28;20355;-90
2022/11/01 08:19:34;;;;;;;10.38;2.22;;;;;;;19.38;56.18;95101.50;4980240;28;20037;-91
2022/11/01 08:22:00;;;;;;;6.32;2.58;;;;;;;19.85;54.00;95109.03;4995289;28;20030;-91
2022/11/01 08:24:26;;;;;;;8.63;2.33;;;;;;;19.88;57.52;95099.69;4996073;28;20427;-91
2022/11/01 08:26:59;;;;;;;3.22;1.77;;;;;;;20.21;54.30;95104.63;5008566;28;20064;-91
2022/11/01 08:29:25;;;;;;;5.10;1.73;;;;;;;20.21;49.96;95101.97;5004681;28;20445;-91
2022/11/01 08:31:53;;;;;;;4.88;2.10;;;;;;;20.13;48.72;95098.19;5018026;28;20029;-91
2022/11/01 08:34:18;;;;;;;10.00;2.25;;;;;;;19.59;51.34;95101.75;5003392;28;20397;-91
2022/11/01 08:36:44;;;;;;;6.13;2.30;;;;;;;19.46;51.15;95110.59;5002557;28;20033;-92
2022/11/01 08:39:09;;;;;;;7.97;2.40;;;;;;;19.93;51.78;95104.88;5002986;28;20029;-91
2022/11/01 08:41:35;;;;;;;6.35;2.33;;;;;;;19.93;52.16;95102.22;5002439;28;20438;-91
2022/11/01 08:44:01;;;;;;;7.63;2.50;;;;;;;20.08;50.88;95097.56;5019051;28;20032;-91
2022/11/01 08:46:26;;;;;;;10.05;2.28;;;;;;;19.75;50.83;95112.78;5017140;28;20117;-92
2022/11/01 08:48:55;;;;;;;6.43;2.40;;;;;;;20.24;51.73;95108.56;5009127;28;20466;-91
2022/11/01 08:51:24;;;;;;;4.68;2.00;;;;;;;20.05;52.80;95107.72;5035357;28;20029;-90
2022/11/01 08:53:54;;;;;;;8.77;2.53;;;;;;;20.60;51.08;95115.47;5018934;28;20386;-88
2022/11/01 08:56:20;;;;;;;6.80;2.55;;;;;;;20.87;48.73;95105.63;5039135;28;20422;-88
2022/11/01 08:58:49;;;;;;;6.47;2.38;;;;;;;20.87;49.16;95117.06;5039271;28;20032;-90
2022/11/01 09:01:15;;;;;;;11.98;1.75;;;;;;;20.66;49.56;95114.22;5039269;28;20075;-89
2022/11/01 09:03:40;;;;;;;6.28;1.70;;;;;;;20.81;50.19;95112.97;5039311;28;20025;-90
2022/11/01 09:06:06;;;;;;;5.05;1.73;;;;;;;20.78;50.24;95116.25;5039062;28;20025;-90
2022/11/01 09:08:31;;;;;;;5.85;2.00;;;;;;;21.41;48.26;95107.84;5022672;28;20021;-89
2022/11/01 09:10:57;;;;;;;7.90;1.85;;;;;;;21.75;48.71;95110.75;5038687;28;20080;-90
2022/11/01 09:13:23;;;;;;;3.50;1.65;;;;;;;21.71;47.38;95110.59;5039835;28;20037;-87
2022/11/01 09:15:48;;;;;;;6.15;2.08;;;;;;;21.91;46.83;95110.19;5022564;28;20453;-89
2022/11/01 09:18:19;;;;;;;7.75;2.40;;;;;;;21.73;46.70;95110.28;5022483;28;20028;-90
2022/11/01 09:20:44;;;;;;;7.30;2.35;;;;;;;20.68;47.93;95122.69;5038143;28;20029;-90
2022/11/01 09:23:09;;;;;;;6.68;2.30;;;;;;;21.63;45.92;95116.72;5015743;28;20044;-89
2022/11/01 09:25:35;;;;;;;4.63;1.90;;;;;;;20.99;45.41;95112.97;4999300;28;20040;-90
2022/11/01 09:28:01;;;;;;;5.90;1.70;;;;;;;21.16;46.17;95122.81;5021806;28;20112;-89
2022/11/01 09:30:27;;;;;;;6.47;2.60;;;;;;;21.86;47.72;95116.50;5017956;28;20044;-89
2022/11/01 09:32:53;;;;;;;4.38;2.03;;;;;;;21.61;44.24;95114.38;5011470;28;20037;-90
2022/11/01 09:35:18;;;;;;;6.60;2.00;;;;;;;21.85;44.69;95120.25;5022220;28;20025;-89
2022/11/01 09:37:47;;;;;;;6.80;1.90;;;;;;;22.12;45.10;95119.03;5038025;28;20508;-90
2022/11/01 09:40:13;;;;;;;8.23;2.22;;;;;;;22.25;43.59;95125.25;5030181;28;20041;-90
2022/11/01 09:42:51;;;;;;;;;;;;;;;;;;;;;
2022/11/01 09:45:20;;;;;;;13.32;2.40;;;;;;;20.39;49.19;95120.59;5035145;28;20014;-89
2022/11/01 09:47:52;;;;;;;7.93;2.17;;;;;;;20.43;48.93;95117.00;5004091;28;20378;-88
2022/11/01 09:50:33;;;;;;;5.15;1.95;;;;;;;20.96;47.90;95125.03;5035451;28;20032;-88
2022/11/01 09:53:00;;;;;;;3.03;1.65;;;;;;;21.63;45.93;95121.25;5037684;28;20021;-90
2022/11/01 09:55:48;;;;;;;6.53;1.65;;;;;;;22.29;44.43;95114.69;5021824;28;20377;-90
2022/11/01 09:58:25;;;;;;;6.85;1.98;;;;;;;22.24;41.89;95122.91;5037588;28;20052;-90
2022/11/01 10:01:02;;;;;;;6.47;2.17;;;;;;;22.66;43.34;95122.94;5037515;28;20430;-91
2022/11/01 10:03:32;;;;;;;8.85;1.95;;;;;;;22.35;44.66;95126.75;5021446;28;20036;-91
2022/11/01 10:06:20;;;;;;;6.47;2.30;;;;;;;22.71;42.98;95130.78;5021926;28;20033;-92
2022/11/01 10:08:57;;;;;;;7.85;2.00;;;;;;;22.52;43.89;95130.41;5021921;28;20017;-92
2022/11/01 10:11:50;;;;;;;6.80;1.77;;;;;;;22.73;44.72;95138.44;5020221;28;20520;-93
2022/11/01 10:14:36;;;;;;;8.85;2.00;;;;;;;22.39;45.26;95130.34;4997995;28;20058;-91
2022/11/01 10:17:18;;;;;;;5.93;1.90;;;;;;;22.93;44.02;95136.84;4998183;28;20033;-91
2022/11/01 10:19:48;;;;;;;6.53;2.17;;;;;;;23.55;43.18;95133.63;5007053;28;20061;-91
2022/11/01 10:22:18;;;;;;;5.75;1.92;;;;;;;23.83;42.80;95133.78;5017123;28;20038;-92
2022/11/01 10:24:49;;;;;;;6.90;2.05;;;;;;;24.10;42.35;95126.22;5020622;28;20120;-91
2022/11/01 10:27:51;;;;;;;5.15;1.98;;;;;;;23.35;44.28;95127.22;5037442;28;20064;-92
2022/11/01 10:30:17;;;;;;;6.38;1.95;;;;;;;23.90;41.83;95121.72;5021903;28;20040;-92
2022/11/01 10:33:21;;;;;;;4.88;1.70;;;;;;;24.00;41.69;95129.31;5020958;28;20441;-91
2022/11/01 10:35:53;;;;;;;8.68;2.13;;;;;;;23.52;41.71;95128.94;5020828;28;20026;-91
2022/11/01 10:38:38;;;;;;;6.07;1.90;;;;;;;23.55;40.82;95125.59;5020440;28;20032;-91
2022/11/01 10:41:28;;;;;;;3.55;1.80;;;;;;;23.56;40.54;95127.97;5012009;28;20113;-92
2022/11/01 10:44:00;;;;;;;3.17;1.50;;;;;;;23.55;40.24;95128.28;5013604;28;20027;-91
2022/11/01 10:46:30;;;;;;;9.43;1.90;;;;;;;22.81;40.75;95124.25;4997810;28;20498;-92
2022/11/01 10:49:28;;;;;;;5.53;1.67;;;;;;;22.16;41.54;95121.81;4991495;28;20018;-92
2022/11/01 10:51:57;;;;;;;6.50;1.88;;;;;;;22.16;41.83;95113.81;5000363;28;20036;-91
2022/11/01 10:54:27;;;;;;;5.68;1.73;;;;;;;22.02;41.75;95122.06;5000982;28;20358;-93
2022/11/01 10:56:56;;;;;;;4.40;1.73;;;;;;;22.28;40.96;95115.81;5017005;28;20030;-93
2022/11/01 10:59:33;;;;;;;10.95;2.25;;;;;;;22.27;41.28;95107.00;5000674;28;20026;-92
2022/11/01 11:02:00;;;;;;;5.75;1.98;;;;;;;22.01;42.87;95120.50;5017094;28;20415;-90
2022/11/01 11:04:27;;;;;;;5.90;2.38;;;;;;;21.82;43.66;95112.91;5000720;28;20427;-91
2022/11/01 11:06:53;;;;;;;7.82;2.08;;;;;;;22.10;43.13;95110.59;5000660;28;20423;-92
2022/11/01 11:09:59;;;;;;;4.15;1.90;;;;;;;22.72;45.18;95105.63;5017317;28;20156;-92
2022/11/01 11:12:26;;;;;;;10.55;2.13;;;;;;;21.74;44.48;95098.50;5017182;28;20486;-90
2022/11/01 11:14:55;;;;;;;6.28;2.13;;;;;;;21.81;43.40;95100.69;5016379;28;20441;-91
2022/11/01 11:17:28;;;;;;;6.78;2.25;;;;;;;22.11;43.98;95104.13;4996926;28;20038;-92
2022/11/01 11:19:54;;;;;;;7.03;1.95;;;;;;;22.48;44.01;95094.81;4997171;28;20125;-92
2022/11/01 11:22:23;;;;;;;8.52;2.20;;;;;;;22.20;44.79;95096.09;4996787;28;20502;-91
2022/11/01 11:24:49;;;;;;;6.85;2.15;;;;;;;22.36;43.92;95098.16;4996957;28;20026;-92
2022/11/01 11:27:22;;;;;;;5.78;2.22;;;;;;;22.63;43.47;95096.13;4999618;28;20370;-92
2022/11/01 11:29:48;;;;;;;11.95;3.20;;;;;;;22.36;44.34;95100.84;5016564;28;20386;-92
2022/11/01 11:32:19;;;;;;;8.32;2.30;;;;;;;22.46;44.40;95100.47;5017253;28;20032;-92
2022/11/01 11:34:52;;;;;;;6.22;2.30;;;;;;;22.67;44.34;95108.50;5016495;28;20053;-92
2022/11/01 11:37:21;;;;;;;9.60;2.22;;;;;;;22.49;45.53;95113.19;5016672;28;20120;-92
2022/11/01 11:40:16;;;;;;;8.15;2.33;;;;;;;22.76;43.84;95111.09;5000262;28;20032;-93
2022/11/01 11:42:43;;;;;;;7.65;2.92;;;;;;;22.71;43.79;95109.41;4982227;28;20354;-92
2022/11/01 11:45:26;;;;;;;7.20;2.60;;;;;;;22.24;44.95;95110.34;5016534;28;20026;-93
2022/11/01 11:48:22;;;;;;;10.23;2.70;;;;;;;21.47;47.98;95103.13;5016443;28;20562;-92
2022/11/01 11:51:01;;;;;;;7.70;2.78;;;;;;;21.29;47.98;95111.19;4996841;28;20121;-92
2022/11/01 11:53:28;;;;;;;7.03;2.65;;;;;;;21.66;46.99;95108.13;5016363;28;20022;-92
2022/11/01 11:55:57;;;;;;;5.38;2.30;;;;;;;21.37;47.29;95098.94;5016308;28;20021;-92
2022/11/01 11:58:47;;;;;;;4.53;2.40;;;;;;;21.47;47.16;95113.78;5000009;28;20029;-91
2022/11/01 12:01:21;;;;;;;15.35;2.47;;;;;;;21.57;46.42;95104.66;5004323;28;20065;-92
2022/11/01 12:03:50;;;;;;;6.72;2.50;;;;;;;21.10;48.16;95095.56;5022698;28;20056;-92
2022/11/01 12:06:27;;;;;;;4.60;2.30;;;;;;;21.20;47.97;95097.09;5017517;28;20065;-92
2022/11/01 12:08:55;;;;;;;7.00;2.53;;;;;;;21.19;47.88;95091.00;4987105;28;20034;-92
2022/11/01 12:11:24;;;;;;;7.07;2.38;;;;;;;21.88;47.30;95091.06;4986976;28;20094;-92
2022/11/01 12:14:22;;;;;;;11.70;2.50;;;;;;;22.00;46.06;95086.94;4986810;28;20042;-92
2022/11/01 12:16:48;;;;;;;7.80;2.75;;;;;;;21.67;46.56;95074.25;4987192;28;20030;-92
2022/11/01 12:19:30;;;;;;;7.68;2.53;;;;;;;21.56;45.91;95079.09;5003020;28;20030;-92